Time;durP1;ratioP1;P1;durP2;ratioP2;P2;SDS_P1;SDS_P2;PMS_P1;PMS_P2;Temp;Humidity;BMP_temperature;BMP_pressure;BME280_temperature;BME280_humidity;BME280_pressure;Samples;Min_cycle;Max_cycle;Signal;HPM_P1;HPM_P2
2023/11/22 00:07:06;;;;;;;0.00;0.00;;;;;;;1.08;72.91;102081.00;15673682;28;20041;-46
2023/11/22 00:14:47;;;;;;;0.00;0.00;;;;;;;1.38;71.34;102098.97;15673047;28;20045;-50
2023/11/22 00:22:20;;;;;;;2.90;2.70;;;;;;;1.10;73.07;102112.59;15672474;28;20071;-47
2023/11/22 00:29:55;;;;;;;0.00;0.00;;;;;;;1.17;72.48;102127.06;15667677;28;20570;-48
2023/11/22 00:37:28;;;;;;;3.33;1.10;;;;;;;0.77;73.70;102132.66;15653943;28;20098;-49
2023/11/22 00:45:05;;;;;;;;;;;;;;;1.06;73.04;102134.94;15652126;28;20088;-50
2023/11/22 00:52:44;;;;;;;0.52;0.45;;;;;;;0.94;72.38;102148.13;15667089;28;20005;-50
2023/11/22 01:00:22;;;;;;;0.00;0.00;;;;;;;0.93;72.20;102149.09;15657318;28;20037;-50
2023/11/22 01:07:55;;;;;;;0.00;0.00;;;;;;;0.72;71.77;102158.56;15634499;28;20534;-49
2023/11/22 01:15:30;;;;;;;;;;;;;;;0.60;73.03;102167.38;15653092;28;20045;-46
2023/11/22 01:23:04;;;;;;;0.47;0.47;;;;;;;0.67;71.92;102164.19;15665954;28;20319;-48
2023/11/22 01:30:41;;;;;;;0.00;0.00;;;;;;;0.30;73.67;102152.75;15653131;28;20029;-45
2023/11/22 01:38:14;;;;;;;0.00;0.00;;;;;;;0.72;72.69;102158.56;15648227;28;20133;-46
2023/11/22 01:45:50;;;;;;;0.13;0.13;;;;;;;0.39;72.97;102161.84;15635140;28;20067;-49
2023/11/22 01:53:24;;;;;;;0.43;0.22;;;;;;;0.25;74.69;102168.09;15651106;28;20052;-48
2023/11/22 02:01:00;;;;;;;0.50;0.50;;;;;;;-0.42;74.98;102170.09;15641912;28;20518;-49
2023/11/22 02:08:37;;;;;;;0.05;0.05;;;;;;;-0.13;74.13;102186.59;15663536;28;20045;-53
2023/11/22 02:16:12;;;;;;;0.00;0.00;;;;;;;-0.17;73.29;102195.66;15663416;28;20519;-50
2023/11/22 02:23:47;;;;;;;0.28;0.28;;;;;;;-0.36;73.30;102194.28;15662453;28;20435;-51
2023/11/22 02:31:20;;;;;;;0.00;0.00;;;;;;;-0.53;72.57;102184.00;15661748;28;20091;-49
2023/11/22 02:38:55;;;;;;;0.20;0.20;;;;;;;-0.59;71.93;102185.28;15661266;28;20049;-48
2023/11/22 02:46:29;;;;;;;0.00;0.00;;;;;;;-0.48;72.40;102220.63;15675343;28;20049;-49
2023/11/22 02:54:04;;;;;;;0.25;0.25;;;;;;;-0.35;69.85;102232.91;15677400;28;20044;-51
2023/11/22 03:01:42;;;;;;;0.17;0.17;;;;;;;-0.77;70.59;102262.94;15651562;28;20130;-50
2023/11/22 03:09:18;;;;;;;0.00;0.00;;;;;;;-0.89;67.62;102290.06;15658358;28;20055;-50
2023/11/22 03:16:52;;;;;;;0.00;0.00;;;;;;;-0.86;66.70;102290.72;15676604;28;20063;-52
2023/11/22 03:24:28;;;;;;;0.00;0.00;;;;;;;-0.74;66.17;102302.28;15659401;28;20064;-49
2023/11/22 03:32:01;;;;;;;0.08;0.08;;;;;;;-0.62;65.98;102305.91;15676427;28;20051;-51
2023/11/22 03:39:36;;;;;;;0.00;0.00;;;;;;;-1.27;66.13;102319.66;15675425;28;20073;-50
2023/11/22 03:47:12;;;;;;;0.03;0.03;;;;;;;-1.18;64.25;102315.63;15675589;28;20049;-51
2023/11/22 03:54:47;;;;;;;0.00;0.00;;;;;;;-1.09;64.12;102301.88;15678891;28;20037;-52
2023/11/22 04:02:22;;;;;;;0.10;0.10;;;;;;;-0.99;64.71;102308.25;15656729;28;20056;-50
2023/11/22 04:09:59;;;;;;;0.10;0.10;;;;;;;-0.16;63.19;102343.34;15672957;28;20049;-51
2023/11/22 04:17:36;;;;;;;0.00;0.00;;;;;;;0.10;64.84;102332.84;15673342;28;20427;-55
2023/11/22 04:25:15;;;;;;;0.47;0.47;;;;;;;-0.03;65.01;102325.75;15673210;28;20072;-51
2023/11/22 04:32:49;;;;;;;0.10;0.10;;;;;;;-0.14;65.06;102336.19;15672701;28;20106;-51
2023/11/22 04:40:24;;;;;;;0.22;0.22;;;;;;;-0.30;66.57;102359.22;15654603;28;20032;-51
2023/11/22 04:48:01;;;;;;;0.00;0.00;;;;;;;-0.63;68.45;102371.00;15672798;28;20110;-49
2023/11/22 04:55:36;;;;;;;0.25;0.25;;;;;;;-0.57;68.08;102393.50;15676633;28;20048;-51
2023/11/22 05:03:09;;;;;;;1.58;1.48;;;;;;;-0.46;68.52;102408.66;15671134;28;20491;-51
2023/11/22 05:10:46;;;;;;;1.75;1.45;;;;;;;-0.80;69.03;102416.03;15671236;28;20581;-50
2023/11/22 05:18:20;;;;;;;0.30;0.30;;;;;;;-0.57;69.11;102430.41;15652670;28;20067;-50
2023/11/22 05:25:55;;;;;;;0.73;0.73;;;;;;;-1.21;69.37;102437.88;15669551;28;20114;-51
2023/11/22 05:33:29;;;;;;;2.40;1.30;;;;;;;-1.69;70.55;102450.31;15693287;22;20418;-52
2023/11/22 05:41:04;;;;;;;0.03;0.03;;;;;;;-1.47;69.73;102467.53;15685695;28;20053;-51
2023/11/22 05:48:48;;;;;;;0.30;0.30;;;;;;;-0.84;68.54;102468.13;15659308;28;20488;-58
2023/11/22 05:56:23;;;;;;;0.00;0.00;;;;;;;-0.96;67.91;102460.94;15597307;28;20060;-54
2023/11/22 06:03:57;;;;;;;0.00;0.00;;;;;;;-0.81;68.10;102459.16;15637456;28;20127;-52
2023/11/22 06:11:32;;;;;;;0.00;0.00;;;;;;;-1.03;68.08;102464.88;15632310;28;20494;-52
2023/11/22 06:19:11;;;;;;;0.15;0.15;;;;;;;-0.74;68.22;102465.75;15615282;28;20094;-52
2023/11/22 06:26:46;;;;;;;0.00;0.00;;;;;;;-0.81;67.28;102477.59;15631273;28;20049;-52
2023/11/22 06:34:20;;;;;;;0.00;0.00;;;;;;;-0.84;68.94;102483.06;15633284;28;20048;-50
2023/11/22 06:41:59;;;;;;;0.10;0.10;;;;;;;-0.88;69.31;102494.75;15623537;28;20088;-52
2023/11/22 06:49:32;;;;;;;0.00;0.00;;;;;;;-0.95;69.54;102528.53;15621981;28;20128;-52
2023/11/22 06:57:07;;;;;;;0.00;0.00;;;;;;;-1.14;68.86;102546.34;15615877;28;20045;-51
2023/11/22 07:04:41;;;;;;;0.88;0.88;;;;;;;-0.98;69.22;102570.88;15624100;28;20152;-49
2023/11/22 07:12:19;;;;;;;0.00;0.00;;;;;;;-0.85;70.23;102578.91;15616135;28;20107;-52
2023/11/22 07:19:53;;;;;;;0.00;0.00;;;;;;;-0.89;70.70;102578.22;15627142;28;20041;-50
2023/11/22 07:27:30;;;;;;;0.30;0.30;;;;;;;-0.75;69.79;102589.75;15605379;28;20076;-50
2023/11/22 07:35:04;;;;;;;0.00;0.00;;;;;;;-0.63;69.29;102583.75;15632112;28;20452;-49
2023/11/22 07:42:39;;;;;;;3.00;0.32;;;;;;;-0.41;69.63;102596.50;15631989;28;20104;-51
2023/11/22 07:50:14;;;;;;;0.00;0.00;;;;;;;-0.30;69.62;102601.97;15614631;28;20060;-49
2023/11/22 07:57:50;;;;;;;0.00;0.00;;;;;;;-0.05;68.04;102573.13;15603171;28;20050;-52
2023/11/22 08:05:25;;;;;;;0.00;0.00;;;;;;;0.21;67.44;102554.78;15613968;28;20037;-53
2023/11/22 08:13:00;;;;;;;0.30;0.30;;;;;;;-0.24;66.41;102548.81;15614559;28;20479;-50
2023/11/22 08:20:37;;;;;;;0.25;0.25;;;;;;;0.03;65.58;102553.31;15613577;28;20052;-52
2023/11/22 08:28:13;;;;;;;0.30;0.30;;;;;;;0.06;63.44;102547.84;15619907;28;20049;-49
2023/11/22 08:35:52;;;;;;;0.30;0.30;;;;;;;0.44;61.58;102563.88;15612518;28;20052;-49
2023/11/22 08:43:28;;;;;;;0.00;0.00;;;;;;;0.82;59.11;102565.78;15612786;28;20041;-50
2023/11/22 08:51:04;;;;;;;0.00;0.00;;;;;;;1.46;57.00;102572.84;15612755;28;20050;-55
2023/11/22 08:58:40;;;;;;;0.00;0.00;;;;;;;2.07;55.35;102527.97;15634302;28;20056;-50
2023/11/22 09:06:14;;;;;;;0.10;0.10;;;;;;;3.78;49.84;102591.13;15610010;28;20049;-52
2023/11/22 09:13:50;;;;;;;0.47;0.47;;;;;;;5.12;48.68;102582.78;15610900;28;20055;-52
2023/11/22 09:21:27;;;;;;;0.00;0.00;;;;;;;4.95;47.63;102562.09;15610571;28;20443;-53
2023/11/22 09:29:03;;;;;;;2.00;1.25;;;;;;;6.54;43.43;102547.34;15599420;28;20045;-50
2023/11/22 09:36:36;;;;;;;0.70;0.70;;;;;;;5.86;43.76;102548.00;15609719;28;20148;-52
2023/11/22 09:44:12;;;;;;;0.10;0.10;;;;;;;5.12;43.56;102537.53;15576749;28;20076;-56
2023/11/22 09:51:48;;;;;;;0.20;0.20;;;;;;;4.84;45.55;102520.41;15612518;28;20136;-53
2023/11/22 09:59:24;;;;;;;0.00;0.00;;;;;;;4.94;45.10;102523.13;15615368;28;20053;-53
2023/11/22 10:06:59;;;;;;;0.32;0.32;;;;;;;5.51;44.30;102561.75;15609274;28;20080;-50
2023/11/22 10:14:34;;;;;;;0.52;0.35;;;;;;;6.87;40.93;102560.28;15611584;28;20064;-56
2023/11/22 10:22:09;;;;;;;0.00;0.00;;;;;;;5.73;43.73;102567.84;15624292;28;20093;-54
2023/11/22 10:29:47;;;;;;;0.00;0.00;;;;;;;5.22;46.08;102571.34;15640384;28;20045;-54
2023/11/22 10:37:20;;;;;;;0.30;0.30;;;;;;;5.12;47.63;102590.78;15622225;28;20057;-52
2023/11/22 10:44:57;;;;;;;0.20;0.20;;;;;;;4.65;45.66;102581.44;15620702;28;20049;-54
2023/11/22 10:52:31;;;;;;;0.28;0.28;;;;;;;4.86;45.72;102584.13;15620917;28;20132;-54
2023/11/22 11:00:11;;;;;;;0.40;0.40;;;;;;;6.27;43.53;102572.00;15617831;28;20132;-50
2023/11/22 11:07:51;;;;;;;0.13;0.13;;;;;;;5.73;44.78;102579.34;15617778;28;20045;-52
2023/11/22 11:15:27;;;;;;;0.00;0.00;;;;;;;8.23;39.34;102567.84;15616827;28;20063;-52
2023/11/22 11:23:05;;;;;;;0.03;0.03;;;;;;;6.90;42.28;102564.47;15603814;28;20049;-52
2023/11/22 11:30:48;;;;;;;0.75;0.75;;;;;;;7.74;38.77;102556.56;15615207;28;20053;-52
2023/11/22 11:38:21;;;;;;;0.52;0.52;;;;;;;7.84;38.66;102546.69;15671989;23;20111;-74
2023/11/22 11:45:56;;;;;;;2.83;1.80;;;;;;;8.39;38.22;102516.38;15632097;28;20033;-73
2023/11/22 11:53:31;;;;;;;1.08;0.98;;;;;;;9.81;35.08;102484.88;15615896;28;20026;-74
2023/11/22 12:01:06;;;;;;;0.55;0.55;;;;;;;9.32;36.08;102471.22;15596413;28;20107;-74
2023/11/22 12:08:42;;;;;;;1.02;0.35;;;;;;;8.94;38.61;102465.31;15607931;28;20104;-73
2023/11/22 12:16:19;;;;;;;0.55;0.52;;;;;;;8.44;38.20;102455.25;15587478;28;20049;-73
2023/11/22 12:23:55;;;;;;;0.10;0.10;;;;;;;7.15;39.15;102443.72;15613775;28;20476;-73
2023/11/22 12:31:34;;;;;;;0.00;0.00;;;;;;;7.10;39.11;102413.13;15612610;28;20111;-75
2023/11/22 12:39:11;;;;;;;0.20;0.20;;;;;;;6.37;41.62;102397.69;15611543;28;20648;-76
2023/11/22 12:46:56;;;;;;;0.13;0.13;;;;;;;4.61;45.28;102418.59;15610593;28;20072;-72
2023/11/22 12:54:32;;;;;;;0.00;0.00;;;;;;;4.47;46.95;102468.59;15611234;28;20060;-73
2023/11/22 13:02:09;;;;;;;0.00;0.00;;;;;;;4.85;46.49;102484.84;15611712;28;20107;-73
2023/11/22 13:09:42;;;;;;;0.00;0.00;;;;;;;4.42;47.96;102506.19;15610751;28;20049;-74
2023/11/22 13:17:17;;;;;;;0.10;0.10;;;;;;;3.26;50.46;102483.66;15593406;28;20049;-73
2023/11/22 13:24:53;;;;;;;0.30;0.30;;;;;;;3.75;51.25;102458.56;15610796;28;20103;-73
2023/11/22 13:32:28;;;;;;;0.00;0.00;;;;;;;3.44;49.11;102463.66;15611357;28;20068;-72
2023/11/22 13:40:03;;;;;;;0.00;0.00;;;;;;;3.86;49.31;102402.75;15591930;28;20065;-74
2023/11/22 13:47:40;;;;;;;0.20;0.20;;;;;;;3.01;51.81;102418.41;15608927;28;20071;-73
2023/11/22 13:55:13;;;;;;;0.00;0.00;;;;;;;3.53;51.01;102388.59;15614105;28;20513;-74
2023/11/22 14:02:52;;;;;;;0.17;0.17;;;;;;;3.85;49.69;102385.13;15620619;28;20068;-74
2023/11/22 14:10:28;;;;;;;0.00;0.00;;;;;;;2.84;53.08;102377.28;15619601;28;20052;-73
2023/11/22 14:18:04;;;;;;;0.57;0.57;;;;;;;3.31;53.70;102386.81;15619595;28;20049;-73
2023/11/22 14:25:38;;;;;;;0.05;0.05;;;;;;;3.39;52.79;102394.16;15619591;28;20041;-72
2023/11/22 14:33:13;;;;;;;0.00;0.00;;;;;;;3.53;53.05;102412.47;15619109;28;20034;-73
2023/11/22 14:40:46;;;;;;;0.25;0.25;;;;;;;1.86;59.01;102431.53;15634108;28;20224;-73
2023/11/22 14:48:22;;;;;;;1.23;1.13;;;;;;;3.00;57.04;102432.66;15618842;28;20053;-74
2023/11/22 14:55:57;;;;;;;0.00;0.00;;;;;;;3.11;55.79;102414.06;15614377;28;20455;-74
2023/11/22 15:03:33;;;;;;;0.10;0.10;;;;;;;2.69;55.63;102392.56;15632541;28;20051;-73
2023/11/22 15:11:09;;;;;;;0.35;0.35;;;;;;;2.97;55.01;102406.34;15598877;28;20048;-73
2023/11/22 15:18:45;;;;;;;0.00;0.00;;;;;;;2.47;56.65;102398.69;15615419;28;20041;-74
2023/11/22 15:26:22;;;;;;;0.00;0.00;;;;;;;2.57;57.11;102403.31;15614501;28;20432;-73
2023/11/22 15:33:58;;;;;;;0.45;0.43;;;;;;;2.50;57.50;102413.50;15615837;28;20408;-72
2023/11/22 15:41:32;;;;;;;0.15;0.15;;;;;;;1.92;61.10;102429.31;15615230;28;20045;-74
2023/11/22 15:49:09;;;;;;;1.35;1.25;;;;;;;1.98;60.45;102415.59;15615116;28;20501;-73
2023/11/22 15:56:45;;;;;;;0.00;0.00;;;;;;;2.19;60.23;102420.25;15614436;28;20469;-71
2023/11/22 16:04:20;;;;;;;0.30;0.30;;;;;;;2.32;61.13;102413.09;15615120;28;20061;-74
2023/11/22 16:11:56;;;;;;;0.20;0.20;;;;;;;2.52;59.74;102378.00;15597446;28;20343;-74
2023/11/22 16:19:31;;;;;;;0.10;0.10;;;;;;;2.30;58.81;102383.22;15613197;28;20567;-73
2023/11/22 16:27:05;;;;;;;0.00;0.00;;;;;;;2.17;59.19;102379.81;15595914;28;20092;-74
2023/11/22 16:34:41;;;;;;;0.28;0.28;;;;;;;1.96;59.77;102377.81;15612844;28;20140;-74
2023/11/22 16:42:18;;;;;;;0.00;0.00;;;;;;;1.25;61.70;102362.72;15612811;28;20038;-72
2023/11/22 16:49:53;;;;;;;0.28;0.28;;;;;;;1.33;62.88;102357.72;15612302;28;20037;-73
2023/11/22 16:57:29;;;;;;;2.03;0.95;;;;;;;1.52;62.61;102350.13;15593186;28;20140;-73
2023/11/22 17:05:05;;;;;;;0.50;0.50;;;;;;;1.34;63.45;102322.38;15577612;28;20087;-72
2023/11/22 17:12:38;;;;;;;0.10;0.10;;;;;;;1.24;63.11;102321.34;15594040;28;20223;-75
2023/11/22 17:20:17;;;;;;;0.00;0.00;;;;;;;0.88;65.46;102312.44;15611117;28;20061;-73
2023/11/22 17:27:52;;;;;;;0.10;0.10;;;;;;;1.38;64.46;102286.81;15667085;23;20135;-50
2023/11/22 17:35:27;;;;;;;0.00;0.00;;;;;;;1.02;65.65;102266.50;15680866;28;20041;-53
2023/11/22 17:43:02;;;;;;;0.08;0.08;;;;;;;0.83;66.79;102253.75;15686168;28;20072;-49
2023/11/22 17:50:40;;;;;;;0.13;0.13;;;;;;;0.77;66.05;102272.72;15684623;28;20127;-51
2023/11/22 17:58:14;;;;;;;0.63;0.60;;;;;;;1.02;66.11;102270.00;15692297;28;20045;-52
2023/11/22 18:05:49;;;;;;;0.45;0.45;;;;;;;1.09;65.71;102256.34;15684982;28;20045;-49
2023/11/22 18:13:22;;;;;;;0.43;0.13;;;;;;;0.50;68.13;102235.88;15684611;28;20063;-49
2023/11/22 18:20:58;;;;;;;0.13;0.13;;;;;;;0.29;69.38;102217.09;15666720;28;20049;-49
2023/11/22 18:28:31;;;;;;;2.28;0.80;;;;;;;0.55;68.91;102223.19;15684550;28;20045;-54
2023/11/22 18:36:06;;;;;;;0.00;0.00;;;;;;;0.35;70.26;102207.91;15684103;28;20124;-53
2023/11/22 18:43:40;;;;;;;0.20;0.20;;;;;;;0.37;70.36;102169.00;15681869;28;20160;-51
2023/11/22 18:51:14;;;;;;;;;;;;;;;0.33;70.95;102172.84;15662621;28;20521;-53
2023/11/22 18:58:48;;;;;;;0.00;0.00;;;;;;;-0.10;72.40;102152.06;15678484;28;19955;-51
2023/11/22 19:06:23;;;;;;;1.40;1.30;;;;;;;-0.02;72.55;102140.03;15678522;28;20069;-51
2023/11/22 19:13:56;;;;;;;0.50;0.50;;;;;;;-0.10;73.14;102129.16;15660236;28;20124;-51
2023/11/22 19:21:31;;;;;;;0.10;0.10;;;;;;;-0.20;73.28;102120.19;15678840;28;20041;-51
2023/11/22 19:29:05;;;;;;;0.10;0.10;;;;;;;-0.21;73.54;102099.19;15678312;28;20099;-52
2023/11/22 19:36:39;;;;;;;0.52;0.52;;;;;;;-0.23;73.56;102080.84;15678565;28;20036;-52
2023/11/22 19:44:15;;;;;;;0.00;0.00;;;;;;;-0.28;73.31;102059.19;15677823;28;20052;-53
2023/11/22 19:51:55;;;;;;;1.15;0.95;;;;;;;-0.36;73.39;102053.63;15670321;28;20448;-54
2023/11/22 19:59:28;;;;;;;0.75;0.75;;;;;;;-0.22;72.94;102057.94;15682019;28;20044;-53
2023/11/22 20:07:04;;;;;;;0.10;0.10;;;;;;;-0.43;73.69;102047.06;15677903;28;20065;-54
2023/11/22 20:14:38;;;;;;;0.00;0.00;;;;;;;-0.31;73.08;102022.50;15674157;28;20055;-52
2023/11/22 20:22:14;;;;;;;0.30;0.30;;;;;;;-0.66;73.65;102006.47;15675200;28;20041;-51
2023/11/22 20:29:47;;;;;;;0.00;0.00;;;;;;;-0.44;74.47;102025.13;15673907;28;20096;-54
2023/11/22 20:37:23;;;;;;;0.10;0.10;;;;;;;-0.39;73.99;102022.19;15673797;28;20075;-54
2023/11/22 20:44:56;;;;;;;0.88;0.45;;;;;;;-0.54;74.47;102017.03;15674131;28;20041;-51
2023/11/22 20:52:33;;;;;;;0.50;0.50;;;;;;;-0.43;74.02;101984.63;15656536;28;20108;-50
2023/11/22 21:00:10;;;;;;;0.45;0.45;;;;;;;-0.15;74.09;101998.47;15660994;28;20049;-54
2023/11/22 21:07:45;;;;;;;0.13;0.13;;;;;;;0.03;72.75;101970.78;15653340;28;20064;-50
2023/11/22 21:15:20;;;;;;;0.15;0.15;;;;;;;-0.15;73.63;101938.63;15656419;28;20048;-51
2023/11/22 21:22:55;;;;;;;0.30;0.30;;;;;;;-0.16;72.95;101913.22;15673638;28;20203;-52
2023/11/22 21:30:28;;;;;;;2.10;1.92;;;;;;;-0.19;73.59;101889.66;15671722;28;20056;-49
2023/11/22 21:38:04;;;;;;;0.77;0.77;;;;;;;0.23;72.26;101868.97;15671744;28;20047;-51
2023/11/22 21:45:43;;;;;;;0.00;0.00;;;;;;;-0.04;73.24;101863.97;15672402;28;20041;-55
2023/11/22 21:53:17;;;;;;;0.10;0.10;;;;;;;-0.57;74.93;101866.91;15675231;28;20033;-49
2023/11/22 22:00:52;;;;;;;1.02;0.65;;;;;;;-0.31;73.91;101869.47;15674234;28;20136;-55
2023/11/22 22:08:27;;;;;;;0.00;0.00;;;;;;;-0.11;72.19;101845.09;15670072;28;20128;-56
2023/11/22 22:16:00;;;;;;;0.10;0.10;;;;;;;0.27;71.13;101814.13;15674891;28;20095;-51
2023/11/22 22:23:35;;;;;;;;;;;;;;;0.19;71.73;101789.19;15665155;28;20496;-51
2023/11/22 22:31:09;;;;;;;0.20;0.20;;;;;;;0.00;72.19;101791.53;15681562;28;19982;-52
2023/11/22 22:38:45;;;;;;;0.10;0.10;;;;;;;0.02;71.62;101763.22;15678952;28;20482;-51
2023/11/22 22:46:18;;;;;;;1.15;1.13;;;;;;;0.34;71.59;101739.63;15678933;28;20045;-53
2023/11/22 22:53:54;;;;;;;0.00;0.00;;;;;;;0.43;71.28;101719.59;15682639;28;20495;-51
2023/11/22 23:01:27;;;;;;;0.20;0.20;;;;;;;0.45;70.43;101710.56;15676828;28;20130;-51
2023/11/22 23:09:02;;;;;;;0.60;0.50;;;;;;;0.39;70.03;101689.94;15659640;28;20053;-53
2023/11/22 23:16:36;;;;;;;0.32;0.32;;;;;;;0.41;69.53;101674.78;15676814;28;20065;-53
2023/11/22 23:24:13;;;;;;;0.03;0.03;;;;;;;0.69;69.29;101654.09;15676352;28;20033;-53
2023/11/22 23:31:46;;;;;;;0.00;0.00;;;;;;;1.02;68.29;101634.66;15675977;28;20037;-51
2023/11/22 23:39:21;;;;;;;;;;;;;;;0.77;68.69;101622.63;15659971;28;20602;-53
2023/11/22 23:46:54;;;;;;;0.00;0.00;;;;;;;0.88;69.00;101629.66;15677595;28;19925;-53
2023/11/22 23:54:30;;;;;;;0.95;0.40;;;;;;;0.87;68.87;101615.59;15682424;28;20073;-54
